Time;durP1;ratioP1;P1;durP2;ratioP2;P2;SDS_P1;SDS_P2;PMS_P1;PMS_P2;Temp;Humidity;BMP_temperature;BMP_pressure;BME280_temperature;BME280_humidity;BME280_pressure;Samples;Min_cycle;Max_cycle;Signal;HPM_P1;HPM_P2
2023/12/19 00:01:23;;;;;;;976.23;897.03;;;7.50;99.90;;;;;;4991413;28;20042;-76
2023/12/19 00:03:49;;;;;;;961.43;882.37;;;7.40;99.90;;;;;;5008459;28;20034;-76
2023/12/19 00:06:15;;;;;;;999.23;912.83;;;7.30;99.90;;;;;;4994283;28;20419;-76
2023/12/19 00:08:41;;;;;;;1020.10;932.45;;;7.30;99.90;;;;;;4989538;28;20046;-76
2023/12/19 00:11:07;;;;;;;998.17;904.03;;;7.20;99.90;;;;;;5010309;28;20415;-76
2023/12/19 00:13:33;;;;;;;1052.30;951.67;;;7.20;99.90;;;;;;5010610;28;20042;-76
2023/12/19 00:15:59;;;;;;;1024.40;935.27;;;7.20;99.90;;;;;;5011282;28;20050;-76
2023/12/19 00:18:26;;;;;;;1098.23;985.50;;;7.10;99.90;;;;;;5011059;28;20408;-76
2023/12/19 00:20:54;;;;;;;1039.57;942.42;;;7.10;99.90;;;;;;5010175;28;20277;-76
2023/12/19 00:23:20;;;;;;;1052.13;949.92;;;7.10;99.90;;;;;;4994489;28;20034;-76
2023/12/19 00:25:46;;;;;;;1178.67;994.07;;;7.10;99.90;;;;;;5010487;28;20614;-75
2023/12/19 00:28:11;;;;;;;1047.20;956.33;;;7.00;99.90;;;;;;5010369;28;20083;-74
2023/12/19 00:30:37;;;;;;;1076.33;969.03;;;7.00;99.90;;;;;;5009461;28;20096;-75
2023/12/19 00:33:03;;;;;;;1207.60;999.90;;;7.00;99.90;;;;;;5010084;28;20473;-74
2023/12/19 00:35:29;;;;;;;1101.40;992.80;;;7.00;99.90;;;;;;5006704;28;20245;-74
2023/12/19 00:37:54;;;;;;;1019.63;933.03;;;7.00;99.90;;;;;;4997189;28;20080;-75
2023/12/19 00:40:21;;;;;;;1067.83;967.77;;;7.00;99.90;;;;;;5009354;28;20133;-75
2023/12/19 00:42:46;;;;;;;1048.90;952.67;;;7.00;99.90;;;;;;4992052;28;20510;-75
2023/12/19 00:45:12;;;;;;;1032.03;942.00;;;7.00;99.90;;;;;;4994414;28;20240;-75
2023/12/19 00:47:39;;;;;;;1073.60;972.40;;;7.00;99.90;;;;;;4993668;28;20045;-75
2023/12/19 00:50:07;;;;;;;1100.68;989.88;;;7.00;99.90;;;;;;4993559;28;20037;-75
2023/12/19 00:52:34;;;;;;;1101.43;994.28;;;7.00;99.90;;;;;;5009928;28;20048;-74
2023/12/19 00:54:59;;;;;;;1132.28;999.08;;;7.00;99.90;;;;;;5010437;28;20493;-74
2023/12/19 00:57:25;;;;;;;1114.90;998.20;;;7.00;99.90;;;;;;5009739;28;20084;-75
2023/12/19 00:59:51;;;;;;;1142.83;999.90;;;7.00;99.90;;;;;;5010156;28;20513;-74
2023/12/19 01:02:16;;;;;;;1114.03;996.87;;;7.00;99.90;;;;;;5009795;28;20034;-74
2023/12/19 01:04:42;;;;;;;1085.60;979.07;;;6.90;99.90;;;;;;5009009;28;20153;-75
2023/12/19 01:07:08;;;;;;;1071.97;969.43;;;7.00;99.90;;;;;;5010082;28;20486;-74
2023/12/19 01:09:33;;;;;;;1051.83;959.13;;;6.90;99.90;;;;;;4997246;28;20044;-74
2023/12/19 01:11:59;;;;;;;1098.77;992.37;;;6.90;99.90;;;;;;5014381;28;20037;-74
2023/12/19 01:14:25;;;;;;;1033.77;944.97;;;7.00;99.90;;;;;;5009674;28;20058;-74
2023/12/19 01:16:50;;;;;;;1202.57;999.90;;;6.90;99.90;;;;;;5004632;28;20486;-74
2023/12/19 01:19:16;;;;;;;1087.10;988.37;;;6.90;99.90;;;;;;4993834;28;20038;-74
2023/12/19 01:21:42;;;;;;;1138.90;999.90;;;6.90;99.90;;;;;;4997626;28;20505;-75
2023/12/19 01:24:08;;;;;;;1110.97;998.50;;;6.90;99.90;;;;;;5013346;28;20482;-74
2023/12/19 01:26:33;;;;;;;1098.10;980.27;;;6.90;99.90;;;;;;5009654;28;20034;-74
2023/12/19 01:28:59;;;;;;;1018.33;933.60;;;6.90;99.90;;;;;;5012485;28;20073;-74
2023/12/19 01:31:25;;;;;;;1054.57;960.83;;;6.80;99.90;;;;;;5013428;28;20072;-74
2023/12/19 01:33:54;;;;;;;1042.17;951.77;;;6.80;99.90;;;;;;5013724;28;20520;-74
2023/12/19 01:36:21;;;;;;;1134.00;999.90;;;6.80;99.90;;;;;;4996010;28;20050;-74
2023/12/19 01:38:46;;;;;;;1118.57;999.90;;;6.80;99.90;;;;;;4994965;28;21635;-75
2023/12/19 01:41:12;;;;;;;1090.53;991.00;;;6.80;99.90;;;;;;5012827;28;20045;-74
2023/12/19 01:43:38;;;;;;;1123.63;965.27;;;6.80;99.90;;;;;;5013933;28;20048;-74
2023/12/19 01:46:04;;;;;;;1086.53;963.17;;;6.80;99.90;;;;;;5009516;28;20403;-74
2023/12/19 01:48:29;;;;;;;1091.07;988.37;;;6.80;99.90;;;;;;4996576;28;20111;-74
2023/12/19 01:50:55;;;;;;;1048.37;953.67;;;6.80;99.90;;;;;;5013031;28;20042;-74
2023/12/19 01:53:23;;;;;;;1073.53;972.20;;;6.80;99.90;;;;;;5013530;28;20042;-74
2023/12/19 01:55:52;;;;;;;1104.15;994.53;;;6.80;99.90;;;;;;5012462;28;20068;-74
2023/12/19 01:58:19;;;;;;;1049.32;954.60;;;6.80;99.90;;;;;;4995260;28;20046;-74
2023/12/19 02:00:45;;;;;;;1037.70;951.28;;;6.80;99.90;;;;;;5011738;28;20136;-74
2023/12/19 02:03:11;;;;;;;1108.40;981.57;;;6.80;99.90;;;;;;5012917;28;20041;-75
2023/12/19 02:05:40;;;;;;;1053.03;960.27;;;6.80;99.90;;;;;;5011356;28;20068;-74
2023/12/19 02:08:06;;;;;;;1040.15;952.10;;;6.80;99.90;;;;;;5007836;28;20124;-74
2023/12/19 02:10:32;;;;;;;1047.97;959.57;;;6.80;99.90;;;;;;5012763;28;20554;-74
2023/12/19 02:12:59;;;;;;;1067.10;969.80;;;6.80;99.90;;;;;;5013117;28;20042;-74
2023/12/19 02:15:24;;;;;;;1069.63;970.17;;;6.80;99.90;;;;;;5012536;28;20107;-74
2023/12/19 02:17:50;;;;;;;1067.83;971.77;;;6.80;99.90;;;;;;4994885;28;20070;-74
2023/12/19 02:20:16;;;;;;;1082.27;981.33;;;6.70;99.90;;;;;;4988986;28;20157;-74
2023/12/19 02:22:41;;;;;;;1075.47;967.57;;;6.70;99.90;;;;;;5012015;28;20457;-74
2023/12/19 02:25:08;;;;;;;1060.03;962.87;;;6.70;99.90;;;;;;5021458;28;20422;-75
2023/12/19 02:27:35;;;;;;;1068.53;951.53;;;6.70;99.90;;;;;;4996329;28;20510;-74
2023/12/19 02:30:01;;;;;;;1032.45;946.65;;;6.70;99.90;;;;;;5011647;28;20042;-75
2023/12/19 02:32:32;;;;;;;1423.68;999.90;;;6.60;99.90;;;;;;5011125;28;20050;-75
2023/12/19 02:34:58;;;;;;;1025.07;941.50;;;6.60;99.90;;;;;;5009366;28;20450;-75
2023/12/19 02:37:23;;;;;;;1080.53;971.37;;;6.60;99.90;;;;;;4994865;28;20046;-75
2023/12/19 02:39:49;;;;;;;1016.73;932.10;;;6.60;99.90;;;;;;4993932;28;20566;-75
2023/12/19 02:42:15;;;;;;;1102.80;996.87;;;6.60;99.90;;;;;;5015352;28;20418;-74
2023/12/19 02:44:40;;;;;;;1120.23;999.90;;;6.70;99.90;;;;;;5012045;28;20108;-75
2023/12/19 02:47:06;;;;;;;985.43;908.70;;;6.70;99.90;;;;;;4992977;28;20048;-75
2023/12/19 02:49:32;;;;;;;1134.30;997.00;;;6.60;99.90;;;;;;4995791;28;20044;-74
2023/12/19 02:51:58;;;;;;;1038.23;949.20;;;6.60;99.90;;;;;;4995300;28;20076;-75
2023/12/19 02:54:24;;;;;;;1089.32;969.97;;;6.60;99.90;;;;;;4996067;28;20498;-75
2023/12/19 02:56:49;;;;;;;1092.30;984.67;;;6.70;99.90;;;;;;4993940;28;20038;-76
2023/12/19 02:59:15;;;;;;;1084.00;982.93;;;6.60;99.90;;;;;;5011572;28;20034;-75
2023/12/19 03:01:46;;;;;;;1088.53;986.83;;;6.60;99.90;;;;;;5012022;28;20117;-75
2023/12/19 03:04:12;;;;;;;1106.85;996.40;;;6.60;99.90;;;;;;4994238;28;20038;-75
2023/12/19 03:06:37;;;;;;;1133.83;999.90;;;6.60;99.90;;;;;;5011001;28;20056;-75
2023/12/19 03:09:03;;;;;;;1107.73;993.87;;;6.60;99.90;;;;;;4994407;28;20407;-76
2023/12/19 03:11:29;;;;;;;1230.27;999.90;;;6.60;99.90;;;;;;5012263;28;20042;-75
2023/12/19 03:13:54;;;;;;;1090.13;988.97;;;6.60;99.90;;;;;;4995003;28;20569;-75
2023/12/19 03:16:20;;;;;;;1159.73;999.90;;;6.60;99.90;;;;;;5012945;28;20560;-75
2023/12/19 03:18:46;;;;;;;1060.10;964.00;;;6.60;99.90;;;;;;4997388;28;20038;-75
2023/12/19 03:21:11;;;;;;;1325.77;999.90;;;6.60;99.90;;;;;;4995466;28;20042;-75
2023/12/19 03:23:37;;;;;;;1148.27;999.90;;;6.70;99.90;;;;;;4995005;28;20038;-75
2023/12/19 03:26:03;;;;;;;1121.23;999.90;;;6.60;99.90;;;;;;4987847;28;20035;-75
2023/12/19 03:28:29;;;;;;;1093.47;989.07;;;6.60;99.90;;;;;;5009770;28;20113;-75
2023/12/19 03:30:54;;;;;;;1088.30;982.17;;;6.70;99.90;;;;;;5011744;28;20049;-75
2023/12/19 03:33:20;;;;;;;1235.83;999.90;;;6.60;99.90;;;;;;5007646;28;20034;-75
2023/12/19 03:35:46;;;;;;;1140.07;999.90;;;6.60;99.90;;;;;;4990276;28;20057;-75
2023/12/19 03:38:11;;;;;;;1113.53;999.10;;;6.70;99.90;;;;;;5010879;28;20490;-75
2023/12/19 03:40:37;;;;;;;1131.00;999.90;;;6.70;99.90;;;;;;5011841;28;20038;-76
2023/12/19 03:43:03;;;;;;;1141.30;999.90;;;6.70;99.90;;;;;;5014379;28;20076;-76
2023/12/19 03:45:29;;;;;;;1297.35;999.90;;;6.70;99.90;;;;;;4994821;28;20103;-76
2023/12/19 03:47:54;;;;;;;1118.80;999.90;;;6.70;99.90;;;;;;5010784;28;20042;-75
2023/12/19 03:50:20;;;;;;;1124.00;999.90;;;6.70;99.90;;;;;;5011200;28;20442;-76
2023/12/19 03:52:46;;;;;;;1120.70;999.90;;;6.70;99.90;;;;;;5009981;28;20038;-75
2023/12/19 03:55:11;;;;;;;1031.53;937.87;;;6.70;99.90;;;;;;4994974;28;20414;-76
2023/12/19 03:57:37;;;;;;;1147.50;999.90;;;6.70;99.90;;;;;;4993672;28;20046;-76
2023/12/19 04:00:04;;;;;;;1094.97;981.07;;;6.70;99.90;;;;;;5011607;28;20044;-76
2023/12/19 04:02:30;;;;;;;1105.60;994.30;;;6.70;99.90;;;;;;4994719;28;20366;-76
2023/12/19 04:04:55;;;;;;;1120.40;999.40;;;6.70;99.90;;;;;;5003213;28;20129;-76
2023/12/19 04:07:21;;;;;;;1150.47;999.90;;;6.70;99.90;;;;;;5010336;28;20054;-76
2023/12/19 04:09:47;;;;;;;1122.03;999.90;;;6.70;99.90;;;;;;5011082;28;20057;-76
2023/12/19 04:12:14;;;;;;;1065.03;971.83;;;6.70;99.90;;;;;;4994847;28;20034;-74
2023/12/19 04:14:39;;;;;;;1079.97;982.35;;;6.70;99.90;;;;;;4995412;28;20080;-75
2023/12/19 04:17:05;;;;;;;1135.00;999.90;;;6.70;99.90;;;;;;5012784;28;20081;-75
2023/12/19 04:19:31;;;;;;;1110.53;998.90;;;6.70;99.90;;;;;;4990752;28;20038;-76
2023/12/19 04:21:57;;;;;;;1096.93;990.53;;;6.70;99.90;;;;;;4991090;28;20037;-76
2023/12/19 04:24:25;;;;;;;1108.68;998.17;;;6.80;99.90;;;;;;4994703;28;20096;-76
2023/12/19 04:26:51;;;;;;;1068.70;975.05;;;6.80;99.90;;;;;;4993662;28;20107;-76
2023/12/19 04:29:17;;;;;;;1073.28;976.28;;;6.80;99.90;;;;;;4993797;28;20052;-75
2023/12/19 04:31:42;;;;;;;1074.50;975.70;;;6.80;99.90;;;;;;4996713;28;20084;-75
2023/12/19 04:34:08;;;;;;;1080.77;984.43;;;6.80;99.90;;;;;;5011120;28;20056;-76
2023/12/19 04:36:34;;;;;;;1100.30;996.27;;;6.80;99.90;;;;;;5010472;28;20042;-76
2023/12/19 04:39:00;;;;;;;1098.67;994.00;;;6.80;99.90;;;;;;5010084;28;20546;-76
2023/12/19 04:41:26;;;;;;;1064.07;967.07;;;6.80;99.90;;;;;;5012493;28;20406;-76
2023/12/19 04:43:51;;;;;;;1080.75;977.83;;;6.80;99.90;;;;;;5010942;28;20513;-76
2023/12/19 04:46:17;;;;;;;1037.50;948.33;;;6.80;99.90;;;;;;5010653;28;20042;-76
2023/12/19 04:48:43;;;;;;;1036.87;946.10;;;6.80;99.90;;;;;;4993040;28;20049;-76
2023/12/19 04:51:22;;;;;;;1098.78;997.40;;;6.80;99.90;;;;;;5012380;28;20064;-76
2023/12/19 04:53:48;;;;;;;1079.80;981.00;;;6.80;99.90;;;;;;4996378;28;20041;-76
2023/12/19 04:56:14;;;;;;;1090.38;977.35;;;6.80;99.90;;;;;;5010255;28;20034;-76
2023/12/19 04:58:41;;;;;;;1045.25;949.95;;;6.80;99.90;;;;;;5012735;28;20042;-76
2023/12/19 05:01:07;;;;;;;1105.45;993.28;;;6.90;99.90;;;;;;4984658;28;20045;-77
2023/12/19 05:03:33;;;;;;;1127.70;999.90;;;6.90;99.90;;;;;;4993648;28;20042;-77
2023/12/19 05:06:00;;;;;;;1127.65;999.90;;;6.90;99.90;;;;;;5010889;28;20046;-77
2023/12/19 05:08:25;;;;;;;1084.75;985.90;;;6.90;99.90;;;;;;5011434;28;20041;-77
2023/12/19 05:10:51;;;;;;;1063.43;969.17;;;6.90;99.90;;;;;;4993292;28;20042;-77
2023/12/19 05:13:17;;;;;;;1067.03;965.67;;;6.90;99.90;;;;;;5025316;28;20033;-77
2023/12/19 05:15:42;;;;;;;1077.53;982.47;;;6.90;99.90;;;;;;5009948;28;20387;-77
2023/12/19 05:18:08;;;;;;;1103.30;992.83;;;6.90;99.90;;;;;;5010058;28;20092;-77
2023/12/19 05:20:34;;;;;;;1091.73;994.83;;;6.90;99.90;;;;;;5007788;28;20065;-77
2023/12/19 05:23:03;;;;;;;1133.60;999.90;;;6.90;99.90;;;;;;4993186;28;20111;-77
2023/12/19 05:25:28;;;;;;;1077.72;974.85;;;6.90;99.90;;;;;;5010238;28;20104;-78
2023/12/19 05:27:54;;;;;;;1101.57;995.73;;;7.00;99.90;;;;;;4996806;28;20038;-78
2023/12/19 05:30:20;;;;;;;1096.40;995.03;;;7.00;99.90;;;;;;5009746;28;20099;-77
2023/12/19 05:32:46;;;;;;;1098.00;991.07;;;7.00;99.90;;;;;;4991456;28;20048;-78
2023/12/19 05:35:11;;;;;;;1084.43;986.63;;;7.00;99.90;;;;;;5009053;28;20065;-78
2023/12/19 05:37:37;;;;;;;1094.97;986.63;;;7.10;99.90;;;;;;5010183;28;20509;-77
2023/12/19 05:40:03;;;;;;;1227.43;999.90;;;7.10;99.90;;;;;;4984805;28;20030;-77
2023/12/19 05:42:30;;;;;;;1110.22;997.28;;;7.10;99.90;;;;;;5008176;28;20045;-77
2023/12/19 05:44:56;;;;;;;1138.13;999.90;;;7.20;99.90;;;;;;5007776;28;20107;-78
2023/12/19 05:47:21;;;;;;;1130.43;999.90;;;7.20;99.90;;;;;;5006118;28;20038;-77
2023/12/19 05:49:47;;;;;;;1107.53;997.30;;;7.20;99.90;;;;;;5010142;28;20046;-78
2023/12/19 05:52:13;;;;;;;1059.37;967.77;;;7.20;99.90;;;;;;5004662;28;20129;-77
2023/12/19 05:54:38;;;;;;;1055.87;961.87;;;7.20;99.90;;;;;;5009361;28;20034;-77
2023/12/19 05:57:04;;;;;;;1026.33;944.00;;;7.20;99.90;;;;;;5005335;28;20038;-78
2023/12/19 05:59:30;;;;;;;1058.43;963.80;;;7.20;99.90;;;;;;5010058;28;20050;-77
2023/12/19 06:01:55;;;;;;;1040.73;952.53;;;7.20;99.90;;;;;;5015967;28;20033;-77
2023/12/19 06:04:21;;;;;;;1085.47;986.60;;;7.20;99.90;;;;;;5007573;28;20095;-78
2023/12/19 06:06:47;;;;;;;1141.07;999.90;;;7.20;99.90;;;;;;4986566;28;20479;-77
2023/12/19 06:09:13;;;;;;;1055.40;966.17;;;7.20;99.90;;;;;;5005404;28;20176;-78
2023/12/19 06:11:38;;;;;;;1022.63;939.43;;;7.20;99.90;;;;;;5009490;28;20045;-77
2023/12/19 06:14:05;;;;;;;1040.03;952.80;;;7.20;99.90;;;;;;5012426;28;20076;-78
2023/12/19 06:16:32;;;;;;;1072.75;974.70;;;7.20;99.90;;;;;;4995292;28;20128;-77
2023/12/19 06:18:58;;;;;;;1029.93;946.90;;;7.20;99.90;;;;;;5008415;28;20064;-78
2023/12/19 06:21:24;;;;;;;1154.20;999.90;;;7.30;99.90;;;;;;5016846;28;20038;-78
2023/12/19 06:23:50;;;;;;;1092.30;992.67;;;7.30;99.90;;;;;;5011482;28;20030;-78
2023/12/19 06:26:16;;;;;;;1046.37;957.47;;;7.30;99.90;;;;;;4995585;28;20288;-78
2023/12/19 06:28:42;;;;;;;1060.17;962.93;;;7.30;99.90;;;;;;5011808;28;20378;-77
2023/12/19 06:31:08;;;;;;;1100.93;999.50;;;7.30;99.90;;;;;;5012470;28;20041;-76
2023/12/19 06:33:34;;;;;;;1124.03;999.90;;;7.30;99.90;;;;;;4995817;28;20517;-76
2023/12/19 06:36:01;;;;;;;1059.25;967.05;;;7.20;99.90;;;;;;4996376;28;20132;-77
2023/12/19 06:38:26;;;;;;;1081.95;987.85;;;7.20;99.90;;;;;;5012769;28;20046;-77
2023/12/19 06:40:52;;;;;;;1071.93;976.47;;;7.20;99.90;;;;;;4996295;28;20150;-77
2023/12/19 06:43:19;;;;;;;1055.37;964.57;;;7.20;99.90;;;;;;5011540;28;21057;-77
2023/12/19 06:45:45;;;;;;;1073.15;979.08;;;7.20;99.90;;;;;;5012865;28;20116;-77
2023/12/19 06:48:11;;;;;;;1007.07;925.20;;;7.20;99.90;;;;;;5019912;28;20494;-77
2023/12/19 06:50:39;;;;;;;1075.63;980.27;;;7.20;99.90;;;;;;5017189;28;20099;-76
2023/12/19 06:53:05;;;;;;;1031.30;945.03;;;7.20;99.90;;;;;;5012457;28;20041;-77
2023/12/19 06:55:31;;;;;;;1006.90;920.60;;;7.30;99.90;;;;;;4990361;28;20510;-77
2023/12/19 06:57:57;;;;;;;1072.67;978.83;;;7.20;99.90;;;;;;4998643;28;20034;-77
2023/12/19 07:00:23;;;;;;;1087.47;987.50;;;7.20;99.90;;;;;;4995579;28;20053;-77
2023/12/19 07:02:49;;;;;;;1108.00;999.90;;;7.20;99.90;;;;;;5011992;28;20037;-77
2023/12/19 07:05:14;;;;;;;1135.93;999.90;;;7.20;99.90;;;;;;4998168;28;20061;-77
2023/12/19 07:07:40;;;;;;;1188.53;999.90;;;7.20;99.90;;;;;;5009728;28;20037;-77
2023/12/19 07:10:06;;;;;;;1068.07;974.97;;;7.20;99.90;;;;;;5021874;28;20038;-77
2023/12/19 07:12:32;;;;;;;1139.25;999.90;;;7.30;99.90;;;;;;5007819;28;20759;-77
2023/12/19 07:14:59;;;;;;;1108.97;998.17;;;7.30;99.90;;;;;;4995522;28;20176;-77
2023/12/19 07:17:24;;;;;;;1710.65;999.90;;;7.30;99.90;;;;;;5011870;28;20414;-78
2023/12/19 07:19:50;;;;;;;1099.63;994.50;;;7.30;99.90;;;;;;4996085;28;20107;-78
2023/12/19 07:22:16;;;;;;;1092.30;993.67;;;7.40;99.90;;;;;;5006171;28;20288;-77
2023/12/19 07:24:42;;;;;;;1108.80;998.23;;;7.40;99.90;;;;;;5011758;28;20045;-77
2023/12/19 07:27:08;;;;;;;1067.90;969.67;;;7.50;99.90;;;;;;5011874;28;20052;-77
2023/12/19 07:29:37;;;;;;;1137.55;999.90;;;7.50;99.90;;;;;;4992474;28;20038;-77
2023/12/19 07:32:03;;;;;;;1083.18;986.05;;;7.50;99.90;;;;;;4995277;28;20133;-76
2023/12/19 07:34:28;;;;;;;1125.72;999.90;;;7.60;99.90;;;;;;4995250;28;20072;-76
2023/12/19 07:36:54;;;;;;;1096.23;996.43;;;7.60;99.90;;;;;;5011054;28;20049;-76
2023/12/19 07:39:20;;;;;;;1125.40;999.90;;;7.60;99.90;;;;;;4992311;28;20037;-76
2023/12/19 07:41:45;;;;;;;1074.90;979.93;;;7.60;99.90;;;;;;4992702;28;20064;-75
2023/12/19 07:44:14;;;;;;;1117.17;999.90;;;7.60;99.90;;;;;;5011625;28;20502;-75
2023/12/19 07:46:41;;;;;;;1103.85;994.78;;;7.60;99.90;;;;;;5001887;28;20077;-76
2023/12/19 07:49:08;;;;;;;1141.90;999.90;;;7.60;99.90;;;;;;4995245;28;20042;-77
2023/12/19 07:51:34;;;;;;;1113.15;999.90;;;7.70;99.90;;;;;;5011469;28;20045;-77
2023/12/19 07:53:59;;;;;;;1144.00;999.90;;;7.70;99.90;;;;;;4992282;28;20091;-77
2023/12/19 07:56:25;;;;;;;1144.97;999.90;;;7.70;99.90;;;;;;4994271;28;20064;-77
2023/12/19 07:58:54;;;;;;;1122.60;999.90;;;7.70;99.90;;;;;;4995026;28;20041;-77
2023/12/19 08:01:20;;;;;;;1148.28;999.90;;;7.70;99.90;;;;;;4994088;28;20074;-77
2023/12/19 08:03:46;;;;;;;1158.85;999.90;;;7.80;99.90;;;;;;4994928;28;20474;-77
2023/12/19 08:06:12;;;;;;;1266.77;999.90;;;7.70;99.90;;;;;;5006879;28;20112;-77
2023/12/19 08:08:38;;;;;;;1131.97;999.90;;;7.80;99.90;;;;;;5011085;28;20034;-76
2023/12/19 08:11:05;;;;;;;1176.30;999.90;;;7.90;99.90;;;;;;5011107;28;20045;-77
2023/12/19 08:13:31;;;;;;;1223.45;999.90;;;7.90;99.90;;;;;;5008335;28;20042;-77
2023/12/19 08:15:57;;;;;;;1148.10;999.90;;;7.90;99.90;;;;;;5010672;28;20517;-78
2023/12/19 08:18:23;;;;;;;1203.77;999.90;;;8.00;99.90;;;;;;5009929;28;20168;-78
2023/12/19 08:20:48;;;;;;;1138.00;999.90;;;8.00;99.90;;;;;;4994763;28;20038;-78
2023/12/19 08:23:14;;;;;;;1101.30;997.97;;;8.00;99.90;;;;;;4994306;28;20119;-77
2023/12/19 08:25:41;;;;;;;1117.00;999.90;;;8.00;99.90;;;;;;5010503;28;20143;-77
2023/12/19 08:28:11;;;;;;;1115.80;999.90;;;8.00;99.90;;;;;;5009639;28;20285;-78
2023/12/19 08:30:38;;;;;;;1171.57;999.90;;;8.00;99.90;;;;;;4985285;28;20046;-78
2023/12/19 08:33:05;;;;;;;1155.38;999.90;;;8.10;99.90;;;;;;5006732;28;20121;-77
2023/12/19 08:35:31;;;;;;;1134.07;999.90;;;8.10;99.90;;;;;;5022045;28;20453;-77
2023/12/19 08:37:57;;;;;;;1104.00;998.63;;;8.10;99.90;;;;;;5010353;28;20046;-77
2023/12/19 08:40:23;;;;;;;1137.83;999.90;;;8.10;99.90;;;;;;4994618;28;20487;-77
2023/12/19 08:42:48;;;;;;;1135.80;999.90;;;8.10;99.90;;;;;;4993958;28;20080;-78
2023/12/19 08:45:15;;;;;;;1117.77;999.90;;;8.10;99.90;;;;;;5009090;28;20042;-77
2023/12/19 08:47:42;;;;;;;1136.85;999.90;;;8.10;99.90;;;;;;5010201;28;20037;-78
2023/12/19 08:50:09;;;;;;;1145.40;999.90;;;8.10;99.90;;;;;;5010532;28;20071;-77
2023/12/19 08:52:37;;;;;;;1145.20;999.90;;;8.10;99.90;;;;;;5010814;28;20459;-76
2023/12/19 08:55:11;;;;;;;1079.35;982.90;;;8.10;99.90;;;;;;4993891;28;20342;-77
2023/12/19 08:57:45;;;;;;;1094.10;995.23;;;8.10;99.90;;;;;;5010844;28;20045;-76
2023/12/19 09:00:18;;;;;;;1107.70;999.08;;;8.10;99.90;;;;;;5000472;28;20310;-76
2023/12/19 09:02:45;;;;;;;1094.30;992.35;;;8.10;99.90;;;;;;4992551;28;20073;-77
2023/12/19 09:05:16;;;;;;;1125.70;999.67;;;8.10;99.90;;;;;;4991444;28;20458;-76
2023/12/19 09:07:43;;;;;;;1101.07;998.13;;;8.20;99.90;;;;;;4988936;28;21274;-76
2023/12/19 09:10:11;;;;;;;1063.37;966.60;;;8.20;99.90;;;;;;5007771;28;20283;-76
2023/12/19 09:12:37;;;;;;;1119.00;999.90;;;8.20;99.90;;;;;;4990741;28;20351;-76
2023/12/19 09:15:05;;;;;;;1097.93;996.20;;;8.20;99.90;;;;;;5006779;28;20496;-76
2023/12/19 09:17:31;;;;;;;1109.43;999.90;;;8.20;99.90;;;;;;4990336;28;20041;-76
2023/12/19 09:19:59;;;;;;;1152.47;999.90;;;8.20;99.90;;;;;;5007474;28;20774;-76
2023/12/19 09:22:28;;;;;;;1131.97;999.90;;;8.30;99.90;;;;;;4983253;28;20506;-76
2023/12/19 09:24:54;;;;;;;1104.77;995.43;;;8.30;99.90;;;;;;5009085;28;20288;-76
2023/12/19 09:27:20;;;;;;;1135.43;999.90;;;8.30;99.90;;;;;;5006229;28;20285;-76
2023/12/19 09:29:45;;;;;;;1136.10;999.90;;;8.30;99.90;;;;;;5009931;28;20362;-76
2023/12/19 09:32:12;;;;;;;1098.27;996.87;;;8.30;99.90;;;;;;4991212;28;20193;-76
2023/12/19 09:34:40;;;;;;;1128.50;999.90;;;8.40;99.90;;;;;;5007406;28;20107;-76
2023/12/19 09:37:07;;;;;;;1076.53;980.67;;;8.40;99.90;;;;;;5012899;28;20305;-76
2023/12/19 09:39:32;;;;;;;1111.37;999.67;;;8.40;99.90;;;;;;5014065;28;20649;-76
2023/12/19 09:41:58;;;;;;;1078.50;982.57;;;8.50;99.90;;;;;;4999237;28;20277;-76
2023/12/19 09:44:26;;;;;;;1095.43;992.97;;;8.50;99.90;;;;;;5013890;28;20034;-76
2023/12/19 09:46:52;;;;;;;1159.00;999.90;;;8.50;99.90;;;;;;5014003;28;20438;-76
2023/12/19 09:49:22;;;;;;;1116.17;999.70;;;8.50;99.90;;;;;;5013512;28;20348;-76
2023/12/19 09:51:53;;;;;;;1081.40;981.47;;;8.60;99.90;;;;;;4994971;28;20386;-76
2023/12/19 09:54:21;;;;;;;1092.63;993.53;;;8.60;99.90;;;;;;5013667;28;20284;-76
2023/12/19 09:56:52;;;;;;;1079.20;983.17;;;8.70;99.90;;;;;;5013788;28;20839;-75
2023/12/19 09:59:18;;;;;;;1143.97;999.90;;;8.70;99.90;;;;;;5013116;28;20761;-75
2023/12/19 10:01:47;;;;;;;1081.83;983.90;;;8.70;99.90;;;;;;5013188;28;20658;-75
2023/12/19 10:04:13;;;;;;;1088.23;991.47;;;8.70;99.90;;;;;;5004024;28;20313;-75
2023/12/19 10:06:54;;;;;;;1135.07;999.90;;;8.70;99.90;;;;;;5026665;28;20355;-76
2023/12/19 10:09:21;;;;;;;1107.50;999.53;;;8.80;99.90;;;;;;5013168;28;20038;-76
2023/12/19 10:12:02;;;;;;;1162.53;999.90;;;8.80;99.90;;;;;;5013801;28;20350;-76
2023/12/19 10:14:27;;;;;;;1116.40;999.90;;;8.80;99.90;;;;;;5014032;28;20343;-76
2023/12/19 10:16:54;;;;;;;1127.70;999.90;;;8.80;99.90;;;;;;5013946;28;20836;-76
2023/12/19 10:19:28;;;;;;;1148.30;999.90;;;8.80;99.90;;;;;;5013728;28;20041;-77
2023/12/19 10:22:05;;;;;;;1125.75;999.90;;;8.80;99.90;;;;;;4996242;28;20368;-75
2023/12/19 10:24:31;;;;;;;1095.13;996.20;;;8.90;99.90;;;;;;5014396;28;20052;-76
2023/12/19 10:27:05;;;;;;;1137.47;999.90;;;8.90;99.90;;;;;;5013533;28;20289;-76
2023/12/19 10:29:38;;;;;;;1110.97;999.90;;;8.90;99.90;;;;;;4996232;28;20412;-76
2023/12/19 10:32:20;;;;;;;1114.87;999.90;;;9.00;99.90;;;;;;4995867;28;20073;-76
2023/12/19 10:34:58;;;;;;;1100.43;998.20;;;9.00;99.90;;;;;;5011900;28;20627;-76
2023/12/19 10:37:27;;;;;;;1109.77;999.90;;;9.00;99.90;;;;;;5004023;28;20305;-76
2023/12/19 10:40:10;;;;;;;1147.40;999.90;;;9.00;99.90;;;;;;5010488;28;20276;-77
2023/12/19 10:42:36;;;;;;;1131.70;999.90;;;9.00;99.90;;;;;;5014468;28;20289;-77
2023/12/19 10:45:05;;;;;;;1097.83;997.73;;;9.00;99.90;;;;;;5012329;28;20289;-76
2023/12/19 10:47:31;;;;;;;1173.67;999.90;;;9.00;99.90;;;;;;4994957;28;20364;-76
2023/12/19 10:49:56;;;;;;;1131.00;999.90;;;9.00;99.90;;;;;;5013006;28;20380;-77
2023/12/19 10:52:27;;;;;;;1114.00;999.90;;;9.00;99.90;;;;;;4995813;28;20041;-77
2023/12/19 10:55:04;;;;;;;1125.63;999.90;;;9.00;99.90;;;;;;4996091;28;20417;-76
2023/12/19 10:57:34;;;;;;;1118.40;999.90;;;9.00;99.90;;;;;;4997439;28;20337;-77
2023/12/19 11:00:10;;;;;;;1121.13;999.90;;;9.00;99.90;;;;;;5012697;28;20637;-76
2023/12/19 11:02:51;;;;;;;1150.80;999.90;;;9.00;99.90;;;;;;5011903;28;20395;-76
2023/12/19 11:05:39;;;;;;;1104.73;999.30;;;8.90;99.90;;;;;;4991641;28;20414;-76
2023/12/19 11:08:12;;;;;;;1144.60;999.90;;;8.90;99.90;;;;;;4996057;28;20276;-76
2023/12/19 11:10:39;;;;;;;1104.93;997.13;;;8.90;99.90;;;;;;5002303;28;20352;-76
2023/12/19 11:13:05;;;;;;;1174.77;999.90;;;8.90;99.90;;;;;;4991962;28;20316;-76
2023/12/19 11:15:34;;;;;;;1171.03;999.90;;;8.90;99.90;;;;;;4995558;28;20320;-76
2023/12/19 11:18:15;;;;;;;1169.67;999.90;;;8.90;99.90;;;;;;5012113;28;20034;-76
2023/12/19 11:20:45;;;;;;;1144.70;999.90;;;8.90;99.90;;;;;;5008745;28;20273;-76
2023/12/19 11:23:47;;;;;;;1142.00;999.90;;;8.90;99.90;;;;;;4995755;28;20288;-76
2023/12/19 11:26:25;;;;;;;1134.43;999.90;;;8.90;99.90;;;;;;4996166;28;20281;-77
2023/12/19 11:28:50;;;;;;;1099.03;995.33;;;8.90;99.90;;;;;;5012100;28;20284;-77
2023/12/19 11:31:35;;;;;;;1166.63;999.90;;;8.80;99.90;;;;;;4993009;28;20299;-77
2023/12/19 11:34:24;;;;;;;1152.75;999.90;;;8.80;99.90;;;;;;5008536;28;20087;-76
2023/12/19 11:37:04;;;;;;;1122.27;999.90;;;8.80;99.90;;;;;;5001422;28;20747;-77
2023/12/19 11:39:36;;;;;;;1123.13;999.90;;;8.80;99.90;;;;;;5012121;28;20296;-77
2023/12/19 11:42:02;;;;;;;1155.90;999.90;;;8.80;99.90;;;;;;5011383;28;20277;-77
2023/12/19 11:44:35;;;;;;;1117.87;999.90;;;8.80;99.90;;;;;;5012057;28;20276;-77
2023/12/19 11:47:15;;;;;;;1132.63;999.90;;;8.80;99.90;;;;;;4999395;28;20041;-77
2023/12/19 11:49:41;;;;;;;1124.73;999.90;;;8.80;99.90;;;;;;4995709;28;20755;-78
2023/12/19 11:52:07;;;;;;;1112.93;999.90;;;8.80;99.90;;;;;;5012392;28;20372;-77
2023/12/19 11:54:33;;;;;;;1120.13;999.90;;;8.80;99.90;;;;;;5009878;28;20046;-77
2023/12/19 11:57:01;;;;;;;1148.30;999.90;;;8.90;99.90;;;;;;5010899;28;20425;-77
2023/12/19 11:59:50;;;;;;;1152.87;999.90;;;8.90;99.90;;;;;;4994593;28;20323;-77
2023/12/19 12:02:33;;;;;;;1172.50;999.90;;;9.00;99.90;;;;;;5011562;28;20293;-76
2023/12/19 12:05:16;;;;;;;1135.23;999.90;;;9.00;99.90;;;;;;4994906;28;20335;-77
2023/12/19 12:07:50;;;;;;;1140.93;999.90;;;9.10;99.90;;;;;;5011006;28;20277;-77
2023/12/19 12:10:21;;;;;;;1152.22;999.90;;;9.10;99.90;;;;;;4994835;28;20289;-76